sensor_id;sensor_type;location;lat;lon;timestamp;pressure;altitude;pressure_sealevel;temperature;humidity
41234;BME280;26968;42.686;23.352;2023-12-20T00:01:22;95577.56;;;0.24;84.42
41234;BME280;26968;42.686;23.352;2023-12-20T00:03:48;95556.50;;;0.06;83.94
41234;BME280;26968;42.686;23.352;2023-12-20T00:06:14;95554.44;;;-0.12;83.97
41234;BME280;26968;42.686;23.352;2023-12-20T00:08:39;95613.69;;;0.40;84.46
41234;BME280;26968;42.686;23.352;2023-12-20T00:11:05;95495.88;;;-0.29;84.14
41234;BME280;26968;42.686;23.352;2023-12-20T00:13:30;95494.88;;;-0.22;84.03
41234;BME280;26968;42.686;23.352;2023-12-20T00:15:56;95461.78;;;-0.41;84.48
41234;BME280;26968;42.686;23.352;2023-12-20T00:18:22;95504.91;;;-0.12;84.77
41234;BME280;26968;42.686;23.352;2023-12-20T00:20:47;95500.09;;;-0.15;84.20
41234;BME280;26968;42.686;23.352;2023-12-20T00:23:13;95556.31;;;0.07;83.79
41234;BME280;26968;42.686;23.352;2023-12-20T00:25:38;95586.59;;;0.28;84.22
41234;BME280;26968;42.686;23.352;2023-12-20T00:28:04;95488.47;;;-0.26;84.11
41234;BME280;26968;42.686;23.352;2023-12-20T00:30:29;95540.66;;;0.07;84.35
41234;BME280;26968;42.686;23.352;2023-12-20T00:32:55;95391.75;;;-0.97;83.74
41234;BME280;26968;42.686;23.352;2023-12-20T00:35:21;95526.56;;;-0.12;84.15
41234;BME280;26968;42.686;23.352;2023-12-20T00:37:47;95577.56;;;0.24;84.41
41234;BME280;26968;42.686;23.352;2023-12-20T00:40:12;95576.97;;;0.28;84.53
41234;BME280;26968;42.686;23.352;2023-12-20T00:42:38;95535.03;;;0.10;84.19
41234;BME280;26968;42.686;23.352;2023-12-20T00:45:04;95549.47;;;0.19;83.93
41234;BME280;26968;42.686;23.352;2023-12-20T00:47:33;95511.34;;;-0.02;83.86
41234;BME280;26968;42.686;23.352;2023-12-20T00:49:59;95563.75;;;0.36;84.14
41234;BME280;26968;42.686;23.352;2023-12-20T00:52:24;95417.06;;;-0.64;83.55
41234;BME280;26968;42.686;23.352;2023-12-20T00:54:50;95468.63;;;-0.27;84.23
41234;BME280;26968;42.686;23.352;2023-12-20T00:57:16;95524.41;;;0.12;84.13
41234;BME280;26968;42.686;23.352;2023-12-20T00:59:41;95550.28;;;0.39;83.80
41234;BME280;26968;42.686;23.352;2023-12-20T01:02:07;95537.84;;;0.22;84.08
41234;BME280;26968;42.686;23.352;2023-12-20T01:04:34;95422.88;;;-0.43;83.89
41234;BME280;26968;42.686;23.352;2023-12-20T01:07:00;95537.44;;;0.31;83.77
41234;BME280;26968;42.686;23.352;2023-12-20T01:09:25;95380.59;;;-0.71;83.04
41234;BME280;26968;42.686;23.352;2023-12-20T01:11:54;95470.63;;;-0.03;83.23
41234;BME280;26968;42.686;23.352;2023-12-20T01:14:19;95465.63;;;-0.11;82.77
41234;BME280;26968;42.686;23.352;2023-12-20T01:16:45;95405.03;;;-0.52;82.72
41234;BME280;26968;42.686;23.352;2023-12-20T01:19:10;95452.59;;;-0.17;82.26
41234;BME280;26968;42.686;23.352;2023-12-20T01:21:36;95542.84;;;0.17;81.74
41234;BME280;26968;42.686;23.352;2023-12-20T01:24:02;95449.94;;;-0.44;82.70
41234;BME280;26968;42.686;23.352;2023-12-20T01:26:27;95351.69;;;-0.96;82.16
41234;BME280;26968;42.686;23.352;2023-12-20T01:28:53;95403.66;;;-0.61;82.68
41234;BME280;26968;42.686;23.352;2023-12-20T01:31:19;95341.91;;;-0.94;82.34
41234;BME280;26968;42.686;23.352;2023-12-20T01:33:44;95525.59;;;0.16;82.20
41234;BME280;26968;42.686;23.352;2023-12-20T01:36:10;95476.84;;;-0.04;82.27
41234;BME280;26968;42.686;23.352;2023-12-20T01:38:37;95484.28;;;-0.01;82.32
41234;BME280;26968;42.686;23.352;2023-12-20T01:41:02;95469.22;;;-0.12;82.49
41234;BME280;26968;42.686;23.352;2023-12-20T01:43:29;95447.94;;;-0.35;82.33
41234;BME280;26968;42.686;23.352;2023-12-20T01:45:56;95496.72;;;-0.03;82.32
41234;BME280;26968;42.686;23.352;2023-12-20T01:48:23;95463.00;;;-0.17;82.24
41234;BME280;26968;42.686;23.352;2023-12-20T01:50:49;95360.13;;;-0.81;82.26
41234;BME280;26968;42.686;23.352;2023-12-20T01:53:15;95497.91;;;0.08;82.26
41234;BME280;26968;42.686;23.352;2023-12-20T01:55:41;95326.66;;;-0.90;82.29
41234;BME280;26968;42.686;23.352;2023-12-20T01:58:09;95386.59;;;-0.57;82.69
41234;BME280;26968;42.686;23.352;2023-12-20T02:00:36;95422.09;;;-0.30;82.74
41234;BME280;26968;42.686;23.352;2023-12-20T02:03:03;95241.72;;;-1.37;82.45
41234;BME280;26968;42.686;23.352;2023-12-20T02:05:34;95449.16;;;-0.11;82.32
41234;BME280;26968;42.686;23.352;2023-12-20T02:08:00;95391.63;;;-0.43;82.37
41234;BME280;26968;42.686;23.352;2023-12-20T02:10:26;95379.59;;;-0.50;82.05
41234;BME280;26968;42.686;23.352;2023-12-20T02:12:52;95470.22;;;-0.06;81.94
41234;BME280;26968;42.686;23.352;2023-12-20T02:15:18;95388.00;;;-0.61;81.54
41234;BME280;26968;42.686;23.352;2023-12-20T02:17:45;95459.00;;;-0.20;81.67
41234;BME280;26968;42.686;23.352;2023-12-20T02:20:11;95388.59;;;-0.72;81.10
41234;BME280;26968;42.686;23.352;2023-12-20T02:22:37;95471.59;;;-0.30;81.79
41234;BME280;26968;42.686;23.352;2023-12-20T02:25:02;95431.50;;;-0.49;81.05
41234;BME280;26968;42.686;23.352;2023-12-20T02:27:29;95458.38;;;-0.35;81.23
41234;BME280;26968;42.686;23.352;2023-12-20T02:29:55;95454.56;;;-0.32;81.47
41234;BME280;26968;42.686;23.352;2023-12-20T02:32:21;95450.75;;;-0.43;80.93
41234;BME280;26968;42.686;23.352;2023-12-20T02:34:48;95415.44;;;-0.59;81.10
41234;BME280;26968;42.686;23.352;2023-12-20T02:37:14;95391.81;;;-0.77;81.06
41234;BME280;26968;42.686;23.352;2023-12-20T02:39:39;95431.91;;;-0.52;81.30
41234;BME280;26968;42.686;23.352;2023-12-20T02:42:05;95381.38;;;-0.77;80.73
41234;BME280;26968;42.686;23.352;2023-12-20T02:44:31;95381.38;;;-0.70;81.10
41234;BME280;26968;42.686;23.352;2023-12-20T02:46:56;95381.56;;;-0.79;80.72
41234;BME280;26968;42.686;23.352;2023-12-20T02:49:22;95402.84;;;-0.62;80.75
41234;BME280;26968;42.686;23.352;2023-12-20T02:51:47;95392.00;;;-0.59;80.47
41234;BME280;26968;42.686;23.352;2023-12-20T02:54:13;95440.50;;;-0.45;80.73
41234;BME280;26968;42.686;23.352;2023-12-20T02:56:38;95414.25;;;-0.63;80.51
41234;BME280;26968;42.686;23.352;2023-12-20T02:59:04;95405.63;;;-0.70;80.06
41234;BME280;26968;42.686;23.352;2023-12-20T03:01:34;95412.81;;;-0.79;79.88
41234;BME280;26968;42.686;23.352;2023-12-20T03:04:00;95435.66;;;-0.74;80.60
41234;BME280;26968;42.686;23.352;2023-12-20T03:06:26;95328.97;;;-1.41;80.78
41234;BME280;26968;42.686;23.352;2023-12-20T03:08:52;95384.91;;;-1.04;81.10
41234;BME280;26968;42.686;23.352;2023-12-20T03:11:18;95372.69;;;-1.10;80.93
41234;BME280;26968;42.686;23.352;2023-12-20T03:13:43;95410.59;;;-0.88;80.87
41234;BME280;26968;42.686;23.352;2023-12-20T03:16:13;95391.13;;;-1.05;81.00
41234;BME280;26968;42.686;23.352;2023-12-20T03:18:39;95402.38;;;-0.92;81.17
41234;BME280;26968;42.686;23.352;2023-12-20T03:21:05;95351.66;;;-1.15;80.88
41234;BME280;26968;42.686;23.352;2023-12-20T03:23:31;95421.03;;;-0.75;81.20
41234;BME280;26968;42.686;23.352;2023-12-20T03:25:59;95262.28;;;-1.69;81.18
41234;BME280;26968;42.686;23.352;2023-12-20T03:28:26;95275.84;;;-1.73;81.27
41234;BME280;26968;42.686;23.352;2023-12-20T03:30:52;95219.13;;;-2.04;81.03
41234;BME280;26968;42.686;23.352;2023-12-20T03:33:17;95326.00;;;-1.25;81.07
41234;BME280;26968;42.686;23.352;2023-12-20T03:35:43;95378.53;;;-0.95;81.38
41234;BME280;26968;42.686;23.352;2023-12-20T03:38:09;95344.22;;;-1.25;81.25
41234;BME280;26968;42.686;23.352;2023-12-20T03:40:34;95247.22;;;-1.80;81.49
41234;BME280;26968;42.686;23.352;2023-12-20T03:43:00;95404.59;;;-0.75;81.56
41234;BME280;26968;42.686;23.352;2023-12-20T03:45:26;95333.81;;;-1.19;81.19
41234;BME280;26968;42.686;23.352;2023-12-20T03:47:51;95402.22;;;-0.77;81.64
41234;BME280;26968;42.686;23.352;2023-12-20T03:50:25;95413.00;;;-0.80;81.36
41234;BME280;26968;42.686;23.352;2023-12-20T03:52:51;95377.69;;;-1.15;81.44
41234;BME280;26968;42.686;23.352;2023-12-20T03:55:17;95359.81;;;-1.32;82.54
41234;BME280;26968;42.686;23.352;2023-12-20T03:57:42;95227.72;;;-2.04;82.40
41234;BME280;26968;42.686;23.352;2023-12-20T04:00:08;95256.41;;;-1.84;82.74
41234;BME280;26968;42.686;23.352;2023-12-20T04:02:41;95399.56;;;-0.90;82.71
41234;BME280;26968;42.686;23.352;2023-12-20T04:05:07;95364.91;;;-1.04;82.27
41234;BME280;26968;42.686;23.352;2023-12-20T04:07:33;95352.66;;;-1.17;82.75
41234;BME280;26968;42.686;23.352;2023-12-20T04:09:59;95384.91;;;-1.04;82.29
41234;BME280;26968;42.686;23.352;2023-12-20T04:12:27;95379.50;;;-1.16;84.16
41234;BME280;26968;42.686;23.352;2023-12-20T04:14:52;95259.38;;;-1.93;83.44
41234;BME280;26968;42.686;23.352;2023-12-20T04:17:18;95362.84;;;-1.22;83.63
41234;BME280;26968;42.686;23.352;2023-12-20T04:19:44;95351.25;;;-1.19;83.56
41234;BME280;26968;42.686;23.352;2023-12-20T04:22:09;95266.84;;;-1.77;83.76
41234;BME280;26968;42.686;23.352;2023-12-20T04:24:35;95266.22;;;-1.79;83.89
41234;BME280;26968;42.686;23.352;2023-12-20T04:27:01;95371.91;;;-1.04;84.43
41234;BME280;26968;42.686;23.352;2023-12-20T04:29:27;95179.31;;;-2.18;84.01
41234;BME280;26968;42.686;23.352;2023-12-20T04:31:52;95260.88;;;-1.65;83.88
41234;BME280;26968;42.686;23.352;2023-12-20T04:34:18;95226.41;;;-1.86;83.75
41234;BME280;26968;42.686;23.352;2023-12-20T04:36:44;95340.28;;;-1.08;83.46
41234;BME280;26968;42.686;23.352;2023-12-20T04:39:11;95234.41;;;-1.81;83.10
41234;BME280;26968;42.686;23.352;2023-12-20T04:41:37;95304.38;;;-1.32;83.07
41234;BME280;26968;42.686;23.352;2023-12-20T04:44:02;95368.09;;;-1.02;82.56
41234;BME280;26968;42.686;23.352;2023-12-20T04:46:28;95356.88;;;-1.09;82.64
41234;BME280;26968;42.686;23.352;2023-12-20T04:48:54;95332.81;;;-1.24;82.58
41234;BME280;26968;42.686;23.352;2023-12-20T04:51:19;95310.56;;;-1.33;82.08
41234;BME280;26968;42.686;23.352;2023-12-20T04:53:45;95178.34;;;-2.10;81.75
41234;BME280;26968;42.686;23.352;2023-12-20T04:56:10;95193.56;;;-2.07;81.07
41234;BME280;26968;42.686;23.352;2023-12-20T04:58:36;95279.91;;;-1.51;81.39
41234;BME280;26968;42.686;23.352;2023-12-20T05:01:03;94939.47;;;-3.73;81.15
41234;BME280;26968;42.686;23.352;2023-12-20T05:03:30;95342.81;;;-1.21;81.08
41234;BME280;26968;42.686;23.352;2023-12-20T05:05:56;95351.25;;;-1.19;80.77
41234;BME280;26968;42.686;23.352;2023-12-20T05:08:21;95329.00;;;-1.28;81.21
41234;BME280;26968;42.686;23.352;2023-12-20T05:10:47;95289.13;;;-1.48;80.90
41234;BME280;26968;42.686;23.352;2023-12-20T05:13:13;95344.44;;;-1.13;81.12
41234;BME280;26968;42.686;23.352;2023-12-20T05:15:38;95345.41;;;-1.21;80.70
41234;BME280;26968;42.686;23.352;2023-12-20T05:18:04;95213.31;;;-2.13;80.81
41234;BME280;26968;42.686;23.352;2023-12-20T05:20:29;95292.09;;;-1.58;81.21
41234;BME280;26968;42.686;23.352;2023-12-20T05:22:55;95332.22;;;-1.20;81.41
41234;BME280;26968;42.686;23.352;2023-12-20T05:25:21;95096.94;;;-2.85;81.26
41234;BME280;26968;42.686;23.352;2023-12-20T05:27:46;95257.81;;;-1.81;81.73
41234;BME280;26968;42.686;23.352;2023-12-20T05:30:12;95251.22;;;-1.84;81.98
41234;BME280;26968;42.686;23.352;2023-12-20T05:32:39;95244.59;;;-1.93;82.04
41234;BME280;26968;42.686;23.352;2023-12-20T05:35:05;95323.78;;;-1.35;82.23
41234;BME280;26968;42.686;23.352;2023-12-20T05:37:30;95184.50;;;-2.18;82.31
41234;BME280;26968;42.686;23.352;2023-12-20T05:39:56;95266.22;;;-1.79;82.57
41234;BME280;26968;42.686;23.352;2023-12-20T05:42:21;95171.47;;;-2.38;82.48
41234;BME280;26968;42.686;23.352;2023-12-20T05:44:47;95162.06;;;-2.39;82.55
41234;BME280;26968;42.686;23.352;2023-12-20T05:47:12;95294.31;;;-1.48;83.04
41234;BME280;26968;42.686;23.352;2023-12-20T05:49:38;95296.94;;;-1.48;82.45
41234;BME280;26968;42.686;23.352;2023-12-20T05:52:03;95247.19;;;-1.86;82.05
41234;BME280;26968;42.686;23.352;2023-12-20T05:54:29;95297.47;;;-1.60;82.68
41234;BME280;26968;42.686;23.352;2023-12-20T05:56:55;95154.41;;;-2.53;82.14
41234;BME280;26968;42.686;23.352;2023-12-20T05:59:20;95233.41;;;-1.87;82.39
41234;BME280;26968;42.686;23.352;2023-12-20T06:01:46;95174.31;;;-2.19;82.61
41234;BME280;26968;42.686;23.352;2023-12-20T06:04:11;95280.94;;;-1.45;82.40
41234;BME280;26968;42.686;23.352;2023-12-20T06:06:43;95311.56;;;-1.34;82.13
41234;BME280;26968;42.686;23.352;2023-12-20T06:09:10;94956.72;;;-3.59;82.23
41234;BME280;26968;42.686;23.352;2023-12-20T06:11:35;95172.50;;;-2.19;82.63
41234;BME280;26968;42.686;23.352;2023-12-20T06:14:01;95286.34;;;-1.47;82.56
41234;BME280;26968;42.686;23.352;2023-12-20T06:16:26;95263.28;;;-1.63;83.17
41234;BME280;26968;42.686;23.352;2023-12-20T06:18:52;95309.41;;;-1.31;83.42
41234;BME280;26968;42.686;23.352;2023-12-20T06:21:17;95283.13;;;-1.49;82.97
41234;BME280;26968;42.686;23.352;2023-12-20T06:23:43;95186.50;;;-2.13;83.01
41234;BME280;26968;42.686;23.352;2023-12-20T06:26:09;94895.28;;;-4.06;83.25
41234;BME280;26968;42.686;23.352;2023-12-20T06:28:34;95287.31;;;-1.48;83.58
41234;BME280;26968;42.686;23.352;2023-12-20T06:31:00;95325.00;;;-1.31;83.33
41234;BME280;26968;42.686;23.352;2023-12-20T06:33:26;95259.69;;;-1.62;83.43
41234;BME280;26968;42.686;23.352;2023-12-20T06:35:52;95199.72;;;-2.15;83.60
41234;BME280;26968;42.686;23.352;2023-12-20T06:38:18;95215.19;;;-1.93;83.62
41234;BME280;26968;42.686;23.352;2023-12-20T06:40:44;95248.38;;;-1.89;84.16
41234;BME280;26968;42.686;23.352;2023-12-20T06:43:12;95310.91;;;-1.56;84.18
41234;BME280;26968;42.686;23.352;2023-12-20T06:45:38;95242.31;;;-2.09;84.83
41234;BME280;26968;42.686;23.352;2023-12-20T06:48:04;95050.88;;;-3.17;85.04
41234;BME280;26968;42.686;23.352;2023-12-20T06:50:30;95116.44;;;-2.61;84.77
41234;BME280;26968;42.686;23.352;2023-12-20T06:52:56;95290.38;;;-1.38;84.69
41234;BME280;26968;42.686;23.352;2023-12-20T06:55:21;95017.22;;;-3.04;84.42
41234;BME280;26968;42.686;23.352;2023-12-20T06:57:50;95219.06;;;-1.70;84.77
41234;BME280;26968;42.686;23.352;2023-12-20T07:00:16;94482.88;;;-6.31;84.29
41234;BME280;26968;42.686;23.352;2023-12-20T07:02:43;95310.59;;;-1.13;84.77
41234;BME280;26968;42.686;23.352;2023-12-20T07:05:09;95210.28;;;-1.62;84.22
41234;BME280;26968;42.686;23.352;2023-12-20T07:07:34;95109.34;;;-2.19;83.60
41234;BME280;26968;42.686;23.352;2023-12-20T07:10:00;95187.63;;;-1.75;84.20
41234;BME280;26968;42.686;23.352;2023-12-20T07:12:25;95275.41;;;-1.03;84.53
41234;BME280;26968;42.686;23.352;2023-12-20T07:14:51;95251.56;;;-1.13;84.61
41234;BME280;26968;42.686;23.352;2023-12-20T07:17:17;95280.00;;;-0.98;84.20
41234;BME280;26968;42.686;23.352;2023-12-20T07:19:42;95235.31;;;-1.41;84.89
41234;BME280;26968;42.686;23.352;2023-12-20T07:22:08;95122.22;;;-1.91;85.21
41234;BME280;26968;42.686;23.352;2023-12-20T07:24:34;95184.28;;;-1.62;85.75
41234;BME280;26968;42.686;23.352;2023-12-20T07:27:00;94962.34;;;-3.07;86.23
41234;BME280;26968;42.686;23.352;2023-12-20T07:29:26;95111.41;;;-2.02;86.69
41234;BME280;26968;42.686;23.352;2023-12-20T07:31:53;95237.53;;;-1.05;86.77
41234;BME280;26968;42.686;23.352;2023-12-20T07:34:19;95261.19;;;-0.81;86.40
41234;BME280;26968;42.686;23.352;2023-12-20T07:36:45;95033.63;;;-2.10;86.12
41234;BME280;26968;42.686;23.352;2023-12-20T07:39:12;95230.31;;;-0.84;86.06
41234;BME280;26968;42.686;23.352;2023-12-20T07:41:37;94816.81;;;-3.39;85.67
41234;BME280;26968;42.686;23.352;2023-12-20T07:44:04;95253.75;;;-0.51;86.02
41234;BME280;26968;42.686;23.352;2023-12-20T07:46:30;95240.31;;;-0.61;85.34
41234;BME280;26968;42.686;23.352;2023-12-20T07:48:55;95052.66;;;-1.76;85.39
41234;BME280;26968;42.686;23.352;2023-12-20T07:51:21;95221.31;;;-0.61;85.06
41234;BME280;26968;42.686;23.352;2023-12-20T07:53:46;95171.25;;;-0.83;85.01
41234;BME280;26968;42.686;23.352;2023-12-20T07:56:16;94978.88;;;-1.95;84.98
41234;BME280;26968;42.686;23.352;2023-12-20T07:58:42;95128.63;;;-0.95;85.00
41234;BME280;26968;42.686;23.352;2023-12-20T08:01:08;95062.63;;;-1.34;84.99
41234;BME280;26968;42.686;23.352;2023-12-20T08:03:33;95161.81;;;-0.64;85.08
41234;BME280;26968;42.686;23.352;2023-12-20T08:05:59;95220.84;;;-0.32;85.07
41234;BME280;26968;42.686;23.352;2023-12-20T08:08:25;95215.66;;;-0.45;84.96
41234;BME280;26968;42.686;23.352;2023-12-20T08:10:51;95245.84;;;-0.18;85.53
41234;BME280;26968;42.686;23.352;2023-12-20T08:13:16;95219.25;;;-0.33;85.27
41234;BME280;26968;42.686;23.352;2023-12-20T08:15:42;95204.44;;;-0.52;85.94
41234;BME280;26968;42.686;23.352;2023-12-20T08:18:07;95068.00;;;-1.35;86.31
41234;BME280;26968;42.686;23.352;2023-12-20T08:20:33;94877.56;;;-2.54;86.42
41234;BME280;26968;42.686;23.352;2023-12-20T08:22:58;95207.38;;;-0.16;86.43
41234;BME280;26968;42.686;23.352;2023-12-20T08:25:24;95163.28;;;-0.24;85.79
41234;BME280;26968;42.686;23.352;2023-12-20T08:27:50;95146.66;;;-0.29;85.47
41234;BME280;26968;42.686;23.352;2023-12-20T08:30:15;95110.50;;;-0.64;84.70
41234;BME280;26968;42.686;23.352;2023-12-20T08:32:45;94791.09;;;-2.55;85.08
41234;BME280;26968;42.686;23.352;2023-12-20T08:35:11;94839.38;;;-2.21;84.62
41234;BME280;26968;42.686;23.352;2023-12-20T08:37:37;95217.59;;;0.24;85.72
41234;BME280;26968;42.686;23.352;2023-12-20T08:40:02;95211.78;;;0.28;85.20
41234;BME280;26968;42.686;23.352;2023-12-20T08:42:28;95144.56;;;-0.14;85.39
41234;BME280;26968;42.686;23.352;2023-12-20T08:44:57;95195.69;;;0.31;85.45
41234;BME280;26968;42.686;23.352;2023-12-20T08:47:24;95191.50;;;0.30;84.30
41234;BME280;26968;42.686;23.352;2023-12-20T08:49:49;94728.03;;;-2.88;85.06
41234;BME280;26968;42.686;23.352;2023-12-20T08:52:15;95115.59;;;-0.38;85.59
41234;BME280;26968;42.686;23.352;2023-12-20T08:54:41;95168.75;;;0.06;85.63
41234;BME280;26968;42.686;23.352;2023-12-20T08:57:06;94803.63;;;-2.25;85.26
41234;BME280;26968;42.686;23.352;2023-12-20T08:59:32;95182.94;;;0.17;85.85
41234;BME280;26968;42.686;23.352;2023-12-20T09:01:58;95172.84;;;0.27;86.12
41234;BME280;26968;42.686;23.352;2023-12-20T09:04:24;94939.25;;;-1.13;85.87
41234;BME280;26968;42.686;23.352;2023-12-20T09:06:49;95091.47;;;-0.20;85.86
41234;BME280;26968;42.686;23.352;2023-12-20T09:09:20;95109.34;;;0.08;85.81
41234;BME280;26968;42.686;23.352;2023-12-20T09:11:46;95149.47;;;0.45;85.97
41234;BME280;26968;42.686;23.352;2023-12-20T09:14:13;94903.25;;;-1.16;85.95
41234;BME280;26968;42.686;23.352;2023-12-20T09:16:39;94671.22;;;-2.39;85.79
41234;BME280;26968;42.686;23.352;2023-12-20T09:19:05;94981.09;;;-0.32;85.79
41234;BME280;26968;42.686;23.352;2023-12-20T09:21:30;95107.88;;;0.50;86.55
41234;BME280;26968;42.686;23.352;2023-12-20T09:23:56;95090.41;;;0.51;86.56
41234;BME280;26968;42.686;23.352;2023-12-20T09:26:21;94988.38;;;-0.09;86.50
41234;BME280;26968;42.686;23.352;2023-12-20T09:28:47;94883.47;;;-0.61;86.01
41234;BME280;26968;42.686;23.352;2023-12-20T09:31:13;95110.44;;;0.82;86.12
41234;BME280;26968;42.686;23.352;2023-12-20T09:33:38;94850.16;;;-0.77;86.02
41234;BME280;26968;42.686;23.352;2023-12-20T09:36:04;94951.38;;;0.00;86.30
41234;BME280;26968;42.686;23.352;2023-12-20T09:38:30;95078.25;;;0.88;85.91
41234;BME280;26968;42.686;23.352;2023-12-20T09:40:57;94938.88;;;0.09;85.53
41234;BME280;26968;42.686;23.352;2023-12-20T09:43:24;95072.25;;;1.05;85.83
41234;BME280;26968;42.686;23.352;2023-12-20T09:46:00;94954.63;;;0.39;85.87
41234;BME280;26968;42.686;23.352;2023-12-20T09:48:27;95060.72;;;1.13;85.76
41234;BME280;26968;42.686;23.352;2023-12-20T09:50:54;95051.13;;;1.07;85.60
41234;BME280;26968;42.686;23.352;2023-12-20T09:53:21;95060.16;;;1.29;85.44
41234;BME280;26968;42.686;23.352;2023-12-20T09:55:48;95052.78;;;1.38;85.16
41234;BME280;26968;42.686;23.352;2023-12-20T09:58:14;95053.97;;;1.42;85.17
41234;BME280;26968;42.686;23.352;2023-12-20T10:00:40;94942.00;;;0.61;85.55
41234;BME280;26968;42.686;23.352;2023-12-20T10:03:06;95046.63;;;1.50;85.46
41234;BME280;26968;42.686;23.352;2023-12-20T10:05:33;94973.81;;;1.06;84.95
41234;BME280;26968;42.686;23.352;2023-12-20T10:08:00;95041.44;;;1.62;85.15
41234;BME280;26968;42.686;23.352;2023-12-20T10:10:27;94934.47;;;1.01;84.79
41234;BME280;26968;42.686;23.352;2023-12-20T10:13:25;95048.31;;;1.75;85.26
41234;BME280;26968;42.686;23.352;2023-12-20T10:15:50;94993.47;;;1.57;84.81
41234;BME280;26968;42.686;23.352;2023-12-20T10:18:16;95010.25;;;1.79;84.83
41234;BME280;26968;42.686;23.352;2023-12-20T10:20:42;95018.78;;;1.86;84.71
41234;BME280;26968;42.686;23.352;2023-12-20T10:23:10;94992.63;;;1.86;84.64
41234;BME280;26968;42.686;23.352;2023-12-20T10:25:36;94940.75;;;1.71;84.84
41234;BME280;26968;42.686;23.352;2023-12-20T10:28:15;94983.72;;;2.05;84.47
41234;BME280;26968;42.686;23.352;2023-12-20T10:30:45;95004.13;;;2.50;86.07
41234;BME280;26968;42.686;23.352;2023-12-20T10:33:10;94904.88;;;2.37;85.54
41234;BME280;26968;42.686;23.352;2023-12-20T10:35:37;94988.06;;;3.33;85.48
41234;BME280;26968;42.686;23.352;2023-12-20T10:38:05;94656.75;;;1.65;84.35
41234;BME280;26968;42.686;23.352;2023-12-20T10:40:34;94987.28;;;4.06;83.11
41234;BME280;26968;42.686;23.352;2023-12-20T10:43:02;94692.53;;;2.16;80.71
41234;BME280;26968;42.686;23.352;2023-12-20T10:45:27;94827.63;;;3.31;79.93
41234;BME280;26968;42.686;23.352;2023-12-20T10:47:53;94972.28;;;4.35;78.53
41234;BME280;26968;42.686;23.352;2023-12-20T10:50:19;94783.94;;;3.36;76.80
41234;BME280;26968;42.686;23.352;2023-12-20T10:52:47;94838.28;;;3.74;76.77
41234;BME280;26968;42.686;23.352;2023-12-20T10:55:13;94839.16;;;3.80;76.37
41234;BME280;26968;42.686;23.352;2023-12-20T10:57:39;94957.84;;;4.54;77.38
41234;BME280;26968;42.686;23.352;2023-12-20T11:00:06;94885.47;;;4.24;77.23
41234;BME280;26968;42.686;23.352;2023-12-20T11:02:39;94821.59;;;3.80;74.94
41234;BME280;26968;42.686;23.352;2023-12-20T11:10:59;94931.53;;;4.49;76.39
41234;BME280;26968;42.686;23.352;2023-12-20T11:13:34;94672.22;;;2.97;76.78
41234;BME280;26968;42.686;23.352;2023-12-20T11:16:00;94839.44;;;4.17;76.21
41234;BME280;26968;42.686;23.352;2023-12-20T11:18:30;94853.53;;;4.11;78.41
41234;BME280;26968;42.686;23.352;2023-12-20T11:21:02;94932.69;;;4.58;76.49
41234;BME280;26968;42.686;23.352;2023-12-20T11:23:30;94891.91;;;4.34;75.75
41234;BME280;26968;42.686;23.352;2023-12-20T11:25:58;94275.78;;;0.60;75.25
41234;BME280;26968;42.686;23.352;2023-12-20T11:28:25;94890.88;;;4.35;75.04
41234;BME280;26968;42.686;23.352;2023-12-20T11:33:24;94607.59;;;2.69;74.21
41234;BME280;26968;42.686;23.352;2023-12-20T11:35:51;94880.91;;;4.37;73.88
41234;BME280;26968;42.686;23.352;2023-12-20T11:38:17;94875.28;;;4.28;75.33
41234;BME280;26968;42.686;23.352;2023-12-20T11:40:54;94851.22;;;4.14;75.57
41234;BME280;26968;42.686;23.352;2023-12-20T11:43:38;94853.94;;;4.19;76.03
41234;BME280;26968;42.686;23.352;2023-12-20T11:46:05;94619.25;;;2.61;75.35
41234;BME280;26968;42.686;23.352;2023-12-20T11:48:32;94423.19;;;1.14;75.78
41234;BME280;26968;42.686;23.352;2023-12-20T11:50:58;94762.56;;;3.11;76.98
41234;BME280;26968;42.686;23.352;2023-12-20T11:53:24;94543.88;;;1.68;77.23
41234;BME280;26968;42.686;23.352;2023-12-20T11:55:49;94762.78;;;3.09;77.36
41234;BME280;26968;42.686;23.352;2023-12-20T11:58:15;94622.50;;;2.07;77.48
41234;BME280;26968;42.686;23.352;2023-12-20T12:00:42;94596.47;;;2.00;77.50
41234;BME280;26968;42.686;23.352;2023-12-20T12:03:09;94830.88;;;2.93;79.70
41234;BME280;26968;42.686;23.352;2023-12-20T12:05:40;94403.56;;;0.32;79.98
41234;BME280;26968;42.686;23.352;2023-12-20T12:08:09;94413.09;;;0.03;81.10
41234;BME280;26968;42.686;23.352;2023-12-20T12:10:35;94688.91;;;1.66;82.39
41234;BME280;26968;42.686;23.352;2023-12-20T12:13:01;94777.84;;;2.17;83.32
41234;BME280;26968;42.686;23.352;2023-12-20T12:15:27;94796.69;;;2.31;83.59
41234;BME280;26968;42.686;23.352;2023-12-20T12:17:56;94800.63;;;2.45;83.42
41234;BME280;26968;42.686;23.352;2023-12-20T12:20:22;94708.50;;;2.03;83.55
41234;BME280;26968;42.686;23.352;2023-12-20T12:23:03;94778.56;;;2.81;83.66
41234;BME280;26968;42.686;23.352;2023-12-20T12:32:36;94121.97;;;-0.76;82.67
41234;BME280;26968;42.686;23.352;2023-12-20T12:35:05;94570.19;;;2.07;82.28
41234;BME280;26968;42.686;23.352;2023-12-20T12:37:36;94468.47;;;1.60;82.67
41234;BME280;26968;42.686;23.352;2023-12-20T12:40:05;94542.59;;;1.99;82.02
41234;BME280;26968;42.686;23.352;2023-12-20T12:42:30;94411.03;;;1.48;82.51
41234;BME280;26968;42.686;23.352;2023-12-20T12:44:56;94761.66;;;3.89;82.13
41234;BME280;26968;42.686;23.352;2023-12-20T12:47:22;94692.97;;;3.54;80.97
41234;BME280;26968;42.686;23.352;2023-12-20T12:49:49;94788.22;;;4.14;79.65
41234;BME280;26968;42.686;23.352;2023-12-20T12:52:16;94733.94;;;3.98;78.52
41234;BME280;26968;42.686;23.352;2023-12-20T12:54:42;94513.06;;;2.32;78.93
41234;BME280;26968;42.686;23.352;2023-12-20T12:57:08;94745.75;;;3.96;78.70
41234;BME280;26968;42.686;23.352;2023-12-20T12:59:33;94703.47;;;3.37;77.71
41234;BME280;26968;42.686;23.352;2023-12-20T13:02:09;94157.22;;;-0.06;77.86
41234;BME280;26968;42.686;23.352;2023-12-20T13:04:47;94489.97;;;2.29;78.26